createdAt,value
2018-09-19T00:00:47.822Z,15.86
2018-09-19T00:03:14.724Z,15.83
2018-09-19T00:05:41.613Z,15.84
2018-09-19T00:08:08.497Z,15.83
2018-09-19T00:10:35.400Z,15.77
2018-09-19T00:13:02.288Z,15.67
2018-09-19T00:15:29.228Z,15.58
2018-09-19T00:17:56.068Z,15.57
2018-09-19T00:20:22.949Z,15.54
2018-09-19T00:22:49.840Z,15.56
2018-09-19T00:25:16.755Z,15.55
2018-09-19T00:27:43.632Z,15.54
2018-09-19T00:30:10.529Z,15.53
2018-09-19T00:32:37.460Z,15.53
2018-09-19T00:35:04.356Z,15.55
2018-09-19T00:37:31.274Z,15.56
2018-09-19T00:39:58.219Z,15.59
2018-09-19T00:42:25.109Z,15.53
2018-09-19T00:44:52.010Z,15.49
2018-09-19T00:47:18.902Z,15.45
2018-09-19T00:49:45.805Z,15.44
2018-09-19T00:52:12.696Z,15.43
2018-09-19T00:54:39.617Z,15.41
2018-09-19T00:57:06.542Z,15.39
2018-09-19T00:59:33.445Z,15.38
2018-09-19T01:02:00.346Z,15.35
2018-09-19T01:04:27.244Z,15.37
2018-09-19T01:06:54.147Z,15.35
2018-09-19T01:09:21.032Z,15.29
2018-09-19T01:11:47.955Z,15.29
2018-09-19T01:14:14.854Z,15.29
2018-09-19T01:16:41.748Z,15.25
2018-09-19T01:19:08.656Z,15.25
2018-09-19T01:21:35.543Z,15.22
2018-09-19T01:24:19.959Z,15.22
2018-09-19T01:26:46.869Z,15.22
2018-09-19T01:29:13.776Z,15.18
2018-09-19T01:31:40.683Z,15.17
2018-09-19T01:34:07.893Z,15.16
2018-09-19T01:36:34.791Z,15.12
2018-09-19T01:39:01.699Z,15.10
2018-09-19T01:41:28.592Z,15.07
2018-09-19T01:43:55.490Z,15.05
2018-09-19T01:46:22.392Z,15.05
2018-09-19T01:48:49.284Z,15.05
2018-09-19T01:51:16.175Z,15.03
2018-09-19T01:53:43.093Z,15.04
2018-09-19T01:56:09.992Z,15.02
2018-09-19T01:58:36.885Z,15.00
2018-09-19T02:01:03.772Z,14.95
2018-09-19T02:03:30.729Z,14.91
2018-09-19T02:05:57.615Z,14.90
2018-09-19T02:08:24.547Z,14.88
2018-09-19T02:10:51.466Z,14.85
2018-09-19T02:13:18.356Z,14.87
2018-09-19T02:15:45.245Z,14.85
2018-09-19T02:18:12.142Z,14.81
2018-09-19T02:20:39.021Z,14.79
2018-09-19T02:23:05.928Z,14.78
2018-09-19T02:25:32.844Z,14.75
2018-09-19T02:27:59.760Z,14.70
2018-09-19T02:30:26.658Z,14.71
2018-09-19T02:32:53.562Z,14.73
2018-09-19T02:35:20.489Z,14.77
2018-09-19T02:37:47.672Z,14.71
2018-09-19T02:40:14.564Z,14.73
2018-09-19T02:42:41.515Z,14.75
2018-09-19T02:45:08.411Z,14.78
2018-09-19T02:47:35.288Z,14.75
2018-09-19T02:50:02.240Z,14.75
2018-09-19T02:52:29.109Z,14.72
2018-09-19T02:54:56.017Z,14.72
2018-09-19T02:57:22.887Z,14.72
2018-09-19T02:59:49.789Z,14.69
2018-09-19T03:02:16.674Z,14.64
2018-09-19T03:07:10.375Z,14.62
2018-09-19T03:09:37.258Z,14.63
2018-09-19T03:12:04.192Z,14.63
2018-09-19T03:14:31.081Z,14.64
2018-09-19T03:16:57.979Z,14.64
2018-09-19T03:19:24.861Z,14.65
2018-09-19T03:21:51.753Z,14.64
2018-09-19T03:24:18.638Z,14.64
2018-09-19T03:26:45.511Z,14.63
2018-09-19T03:29:12.401Z,14.62
2018-09-19T03:31:39.283Z,14.61
2018-09-19T03:34:06.161Z,14.62
2018-09-19T03:36:33.036Z,14.60
2018-09-19T03:38:59.927Z,14.62
2018-09-19T03:41:26.795Z,14.57
2018-09-19T03:43:53.680Z,14.56
2018-09-19T03:46:20.588Z,14.61
2018-09-19T03:48:47.473Z,14.59
2018-09-19T03:51:14.376Z,14.56
2018-09-19T03:53:41.240Z,14.54
2018-09-19T03:56:08.125Z,14.52
2018-09-19T03:58:35.044Z,14.50
2018-09-19T04:01:01.971Z,14.51
2018-09-19T04:03:28.849Z,14.50
2018-09-19T04:05:55.757Z,14.49
2018-09-19T04:08:22.632Z,14.49
2018-09-19T04:10:49.542Z,14.47
2018-09-19T04:13:16.431Z,14.47
2018-09-19T04:15:43.324Z,14.47
2018-09-19T04:18:10.268Z,14.46
2018-09-19T04:20:37.158Z,14.43
2018-09-19T04:23:04.055Z,14.42
2018-09-19T04:25:30.953Z,14.39
2018-09-19T04:27:57.853Z,14.37
2018-09-19T04:30:24.771Z,14.34
2018-09-19T04:32:51.661Z,14.34
2018-09-19T04:35:18.561Z,14.31
2018-09-19T04:37:45.452Z,14.31
2018-09-19T04:40:12.355Z,14.29
2018-09-19T04:42:39.260Z,14.29
2018-09-19T04:45:06.226Z,14.23
2018-09-19T04:47:33.076Z,14.20
2018-09-19T04:49:59.976Z,14.24
2018-09-19T04:52:26.878Z,14.27
2018-09-19T04:54:53.798Z,14.29
2018-09-19T04:57:20.684Z,14.31
2018-09-19T04:59:47.613Z,14.32
2018-09-19T05:02:14.525Z,14.34
2018-09-19T05:04:41.420Z,14.33
2018-09-19T05:07:08.348Z,14.31
2018-09-19T05:09:35.260Z,14.32
2018-09-19T05:12:02.201Z,14.36
2018-09-19T05:14:29.066Z,14.39
2018-09-19T05:16:55.959Z,14.38
2018-09-19T05:19:22.850Z,14.39
2018-09-19T05:21:49.750Z,14.39
2018-09-19T05:24:16.641Z,14.38
2018-09-19T05:26:43.539Z,14.38
2018-09-19T05:29:10.471Z,14.38
2018-09-19T05:31:37.431Z,14.40
2018-09-19T05:34:04.265Z,14.40
2018-09-19T05:36:31.150Z,14.44
2018-09-19T05:38:58.053Z,14.45
2018-09-19T05:41:24.965Z,14.52
2018-09-19T05:43:51.836Z,14.57
2018-09-19T05:46:18.760Z,14.60
2018-09-19T05:48:45.633Z,14.64
2018-09-19T05:51:12.536Z,14.63
2018-09-19T05:53:39.425Z,14.69
2018-09-19T05:56:06.320Z,14.78
2018-09-19T05:58:33.191Z,14.87
2018-09-19T06:01:00.094Z,14.93
2018-09-19T06:03:26.980Z,14.98
2018-09-19T06:05:53.875Z,15.05
2018-09-19T06:08:21.072Z,15.12
2018-09-19T06:10:47.995Z,15.21
2018-09-19T06:13:14.885Z,15.30
2018-09-19T06:15:41.768Z,15.32
2018-09-19T06:18:08.709Z,15.38
2018-09-19T06:20:35.679Z,15.47
2018-09-19T06:23:02.576Z,15.54
2018-09-19T06:25:29.467Z,15.59
2018-09-19T06:27:56.480Z,15.67
2018-09-19T06:30:23.379Z,15.78
2018-09-19T06:32:50.324Z,15.78
2018-09-19T06:35:17.197Z,15.77
2018-09-19T06:37:44.111Z,15.77
2018-09-19T06:40:11.090Z,15.75
2018-09-19T06:42:37.939Z,15.71
2018-09-19T06:45:04.888Z,15.66
2018-09-19T06:47:31.792Z,15.62
2018-09-19T06:49:58.677Z,15.61
2018-09-19T06:52:25.631Z,15.56
2018-09-19T06:54:52.519Z,15.55
2018-09-19T06:57:19.517Z,15.52
2018-09-19T06:59:46.540Z,15.53
2018-09-19T07:02:13.337Z,15.56
2018-09-19T07:04:40.239Z,15.63
2018-09-19T07:07:07.149Z,15.73
2018-09-19T07:09:34.044Z,15.79
2018-09-19T07:12:00.985Z,15.88
2018-09-19T07:14:27.938Z,15.92
2018-09-19T07:16:54.800Z,16.07
2018-09-19T07:19:28.427Z,16.24
2018-09-19T07:21:55.349Z,16.35
2018-09-19T07:24:22.250Z,16.51
2018-09-19T07:26:49.161Z,16.63
2018-09-19T07:29:16.056Z,16.69
2018-09-19T07:31:42.975Z,16.83
2018-09-19T07:34:09.872Z,16.95
2018-09-19T07:36:36.777Z,17.16
2018-09-19T07:39:06.713Z,17.35
2018-09-19T07:41:33.613Z,17.63
2018-09-19T07:44:00.520Z,17.70
2018-09-19T07:46:27.473Z,17.87
2018-09-19T07:48:54.375Z,17.98
2018-09-19T07:51:21.280Z,18.18
2018-09-19T07:53:48.207Z,18.35
2018-09-19T07:56:15.114Z,18.50
2018-09-19T07:58:42.041Z,18.36
2018-09-19T08:01:09.078Z,18.22
2018-09-19T08:03:35.937Z,18.25
2018-09-19T08:06:02.873Z,18.14
2018-09-19T08:08:29.794Z,18.16
2018-09-19T08:10:56.669Z,18.54
2018-09-19T08:13:23.589Z,18.69
2018-09-19T08:15:50.510Z,19.01
2018-09-19T08:18:17.400Z,19.31
2018-09-19T08:20:44.318Z,19.34
2018-09-19T08:23:11.519Z,19.06
2018-09-19T08:25:38.444Z,19.22
2018-09-19T08:28:05.357Z,19.40
2018-09-19T08:30:32.304Z,19.53
2018-09-19T08:32:59.228Z,19.52
2018-09-19T08:35:26.130Z,19.60
2018-09-19T08:37:53.053Z,19.58
2018-09-19T08:40:19.969Z,19.63
2018-09-19T08:42:46.925Z,19.60
2018-09-19T08:45:13.817Z,19.81
2018-09-19T08:47:40.716Z,20.04
2018-09-19T08:50:07.634Z,19.75
2018-09-19T08:52:34.588Z,19.68
2018-09-19T08:55:01.548Z,19.89
2018-09-19T08:57:28.484Z,19.97
2018-09-19T08:59:55.380Z,20.29
2018-09-19T09:02:22.300Z,20.47
2018-09-19T09:04:49.242Z,20.54
2018-09-19T09:07:16.136Z,20.46
2018-09-19T09:09:43.041Z,20.53
2018-09-19T09:12:10.059Z,20.63
2018-09-19T09:14:36.945Z,20.77
2018-09-19T09:17:03.891Z,20.95
2018-09-19T09:19:30.796Z,21.08
2018-09-19T09:21:57.697Z,21.21
2018-09-19T09:24:24.592Z,21.05
2018-09-19T09:26:51.569Z,21.27
2018-09-19T09:29:18.440Z,21.57
2018-09-19T09:31:45.324Z,21.69
2018-09-19T09:34:12.292Z,21.78
2018-09-19T09:36:39.214Z,21.85
2018-09-19T09:39:06.188Z,22.02
2018-09-19T09:41:33.092Z,21.94
2018-09-19T09:44:00.002Z,22.03
2018-09-19T09:46:26.896Z,22.06
2018-09-19T09:48:53.768Z,22.27
2018-09-19T09:51:20.708Z,22.45
2018-09-19T09:53:47.601Z,22.60
2018-09-19T09:56:14.512Z,22.45
2018-09-19T09:58:41.400Z,22.62
2018-09-19T10:01:08.384Z,22.88
2018-09-19T10:03:35.247Z,22.97
2018-09-19T10:06:02.148Z,23.02
2018-09-19T10:08:29.077Z,23.05
2018-09-19T10:10:55.992Z,23.26
2018-09-19T10:13:22.869Z,23.30
2018-09-19T10:15:49.778Z,23.34
2018-09-19T10:18:16.672Z,23.35
2018-09-19T10:20:43.565Z,23.59
2018-09-19T10:23:10.447Z,23.50
2018-09-19T10:25:37.344Z,23.52
2018-09-19T10:28:04.248Z,23.64
2018-09-19T10:30:31.168Z,24.03
2018-09-19T10:32:58.076Z,23.98
2018-09-19T10:35:25.020Z,23.87
2018-09-19T10:37:51.899Z,23.88
2018-09-19T10:40:18.805Z,23.93
2018-09-19T10:42:45.723Z,24.02
2018-09-19T10:45:12.625Z,24.11
2018-09-19T10:47:39.542Z,23.95
2018-09-19T10:50:06.563Z,23.99
2018-09-19T10:52:33.465Z,24.00
2018-09-19T10:55:00.344Z,24.29
2018-09-19T10:57:27.240Z,24.60
2018-09-19T10:59:54.118Z,24.90
2018-09-19T11:02:21.025Z,24.87
2018-09-19T11:04:47.939Z,24.74
2018-09-19T11:07:14.867Z,24.44
2018-09-19T11:09:41.770Z,24.45
2018-09-19T11:12:08.791Z,24.59
2018-09-19T11:14:35.834Z,24.83
2018-09-19T11:17:02.821Z,24.72
2018-09-19T11:19:29.739Z,24.85
2018-09-19T11:21:56.670Z,24.87
2018-09-19T11:24:23.576Z,24.55
2018-09-19T11:26:50.489Z,24.70
2018-09-19T11:29:17.405Z,25.18
2018-09-19T11:31:44.307Z,25.42
2018-09-19T11:34:11.197Z,25.25
2018-09-19T11:36:38.128Z,25.25
2018-09-19T11:39:07.600Z,25.16
2018-09-19T11:41:34.547Z,25.05
2018-09-19T11:44:01.468Z,25.05
2018-09-19T11:46:28.361Z,25.30
2018-09-19T11:48:55.276Z,25.40
2018-09-19T11:51:22.177Z,25.50
2018-09-19T11:53:55.902Z,25.46
2018-09-19T11:56:22.813Z,25.48
2018-09-19T11:58:49.708Z,25.49
2018-09-19T12:01:16.604Z,25.43
2018-09-19T12:03:43.513Z,25.61
2018-09-19T12:06:10.416Z,25.58
2018-09-19T12:08:37.305Z,25.86
2018-09-19T12:11:10.976Z,25.86
2018-09-19T12:13:37.921Z,25.94
2018-09-19T12:16:04.900Z,25.89
2018-09-19T12:18:31.812Z,25.92
2018-09-19T12:20:58.706Z,25.25
2018-09-19T12:23:25.632Z,25.42
2018-09-19T12:25:52.531Z,25.74
2018-09-19T12:28:19.429Z,25.79
2018-09-19T12:30:46.331Z,25.28
2018-09-19T12:33:13.238Z,25.10
2018-09-19T12:35:40.136Z,24.77
2018-09-19T12:38:07.065Z,25.08
2018-09-19T12:40:33.989Z,25.11
2018-09-19T12:43:00.900Z,24.71
2018-09-19T12:45:27.828Z,24.37
2018-09-19T12:47:54.764Z,24.56
2018-09-19T12:50:21.665Z,24.85
2018-09-19T12:52:48.585Z,25.30
2018-09-19T12:55:15.529Z,25.27
2018-09-19T12:57:42.438Z,25.26
2018-09-19T13:00:09.380Z,25.36
2018-09-19T13:02:36.280Z,25.19
2018-09-19T13:05:03.214Z,25.39
2018-09-19T13:07:30.124Z,25.50
2018-09-19T13:09:57.025Z,25.57
2018-09-19T13:12:23.917Z,25.47
2018-09-19T13:14:50.829Z,25.27
2018-09-19T13:17:17.729Z,24.99
2018-09-19T13:19:44.725Z,24.95
2018-09-19T13:22:11.620Z,25.18
2018-09-19T13:24:38.544Z,25.52
2018-09-19T13:27:05.448Z,25.52
2018-09-19T13:29:32.377Z,25.70
2018-09-19T13:31:59.289Z,25.88
2018-09-19T13:34:26.204Z,25.77
2018-09-19T13:36:53.120Z,25.52
2018-09-19T13:39:20.036Z,25.61
2018-09-19T13:41:46.936Z,25.33
2018-09-19T13:44:13.851Z,25.00
2018-09-19T13:46:40.788Z,24.73
2018-09-19T13:49:12.091Z,24.71
2018-09-19T13:51:38.997Z,24.95
2018-09-19T13:54:05.909Z,25.04
2018-09-19T13:56:32.833Z,24.95
2018-09-19T13:58:59.798Z,24.72
2018-09-19T14:01:26.681Z,24.59
2018-09-19T14:03:53.592Z,24.74
2018-09-19T14:06:20.505Z,24.74
2018-09-19T14:08:47.424Z,24.74
2018-09-19T14:11:14.354Z,24.75
2018-09-19T14:13:41.244Z,24.79
2018-09-19T14:16:08.268Z,24.73
2018-09-19T14:18:35.189Z,24.77
2018-09-19T14:21:02.120Z,24.89
2018-09-19T14:23:29.004Z,24.94
2018-09-19T14:25:55.917Z,24.95
2018-09-19T14:28:22.827Z,24.97
2018-09-19T14:30:49.729Z,24.94
2018-09-19T14:33:16.639Z,24.96
2018-09-19T14:35:43.600Z,24.92
2018-09-19T14:38:11.216Z,24.90
2018-09-19T14:40:38.134Z,24.93
2018-09-19T14:43:05.106Z,24.99
2018-09-19T14:45:31.996Z,24.93
2018-09-19T14:47:58.896Z,24.95
2018-09-19T14:50:25.785Z,24.95
2018-09-19T14:52:52.700Z,24.90
2018-09-19T14:55:19.624Z,24.89
2018-09-19T14:57:46.547Z,24.85
2018-09-19T15:00:13.516Z,24.84
2018-09-19T15:02:40.398Z,24.80
2018-09-19T15:05:07.296Z,24.76
2018-09-19T15:07:34.334Z,24.85
2018-09-19T15:10:01.248Z,24.87
2018-09-19T15:12:28.175Z,24.87
2018-09-19T15:14:55.071Z,24.88
2018-09-19T15:17:22.000Z,24.97
2018-09-19T15:19:48.937Z,25.02
2018-09-19T15:22:15.854Z,24.93
2018-09-19T15:24:43.157Z,24.84
2018-09-19T15:27:10.072Z,24.81
2018-09-19T15:29:36.965Z,24.75
2018-09-19T15:32:03.888Z,24.69
2018-09-19T15:34:30.816Z,24.66
2018-09-19T15:36:57.724Z,24.64
2018-09-19T15:39:24.640Z,24.61
2018-09-19T15:41:51.540Z,24.54
2018-09-19T15:44:18.507Z,24.50
2018-09-19T15:46:45.401Z,24.58
2018-09-19T15:49:12.327Z,24.60
2018-09-19T15:51:39.212Z,24.62
2018-09-19T15:54:06.141Z,24.66
2018-09-19T15:56:33.040Z,24.66
2018-09-19T15:58:59.978Z,24.62
2018-09-19T16:01:26.884Z,24.55
2018-09-19T16:03:53.804Z,24.50
2018-09-19T16:06:20.722Z,24.45
2018-09-19T16:08:47.638Z,24.35
2018-09-19T16:11:14.593Z,24.30
2018-09-19T16:13:41.888Z,24.24
2018-09-19T16:16:09.208Z,24.21
2018-09-19T16:18:36.172Z,24.13
2018-09-19T16:21:03.189Z,24.03
2018-09-19T16:23:30.204Z,23.95
2018-09-19T16:28:30.844Z,23.91
2018-09-19T16:30:57.742Z,23.83
2018-09-19T16:33:24.645Z,23.86
2018-09-19T16:35:51.560Z,23.85
2018-09-19T16:38:18.477Z,23.80
2018-09-19T16:40:45.386Z,23.73
2018-09-19T16:43:12.344Z,23.64
2018-09-19T16:45:39.350Z,23.59
2018-09-19T16:48:06.588Z,23.53
2018-09-19T16:50:33.501Z,23.47
2018-09-19T16:53:00.476Z,23.43
2018-09-19T16:55:27.347Z,23.49
2018-09-19T16:57:54.248Z,23.48
2018-09-19T17:00:21.173Z,23.46
2018-09-19T17:02:48.086Z,23.42
2018-09-19T17:05:15.006Z,23.37
2018-09-19T17:07:42.016Z,23.35
2018-09-19T17:10:08.945Z,23.34
2018-09-19T17:12:35.856Z,23.30
2018-09-19T17:15:02.836Z,23.21
2018-09-19T17:17:29.764Z,23.09
2018-09-19T17:19:56.676Z,22.96
2018-09-19T17:22:23.572Z,22.81
2018-09-19T17:24:52.993Z,22.54
2018-09-19T17:27:19.909Z,22.26
2018-09-19T17:29:46.821Z,22.03
2018-09-19T17:32:13.760Z,21.90
2018-09-19T17:34:40.712Z,21.72
2018-09-19T17:37:07.725Z,21.61
2018-09-19T17:39:34.625Z,21.49
2018-09-19T17:42:01.561Z,21.40
2018-09-19T17:44:28.534Z,21.28
2018-09-19T17:46:55.490Z,21.20
2018-09-19T17:49:22.445Z,21.08
2018-09-19T17:51:49.372Z,21.00
2018-09-19T17:54:16.287Z,20.93
2018-09-19T17:56:43.236Z,20.85
2018-09-19T17:59:10.140Z,20.78
2018-09-19T18:01:37.148Z,20.70
2018-09-19T18:04:04.089Z,20.66
2018-09-19T18:06:31.809Z,20.61
2018-09-19T18:08:58.732Z,20.56
2018-09-19T18:11:25.648Z,20.49
2018-09-19T18:13:52.605Z,20.47
2018-09-19T18:16:19.598Z,20.35
2018-09-19T18:18:46.568Z,20.27
2018-09-19T18:21:13.467Z,20.18
2018-09-19T18:23:40.377Z,20.11
2018-09-19T18:26:07.316Z,20.04
2018-09-19T18:28:34.248Z,19.98
2018-09-19T18:31:01.285Z,19.98
2018-09-19T18:33:28.196Z,19.93
2018-09-19T18:35:55.165Z,19.90
2018-09-19T18:38:22.127Z,19.82
2018-09-19T18:40:49.023Z,19.72
2018-09-19T18:43:15.898Z,19.66
2018-09-19T18:45:42.793Z,19.59
2018-09-19T18:48:09.720Z,19.50
2018-09-19T18:50:36.615Z,19.42
2018-09-19T18:53:03.524Z,19.32
2018-09-19T18:55:30.439Z,19.22
2018-09-19T18:57:57.353Z,19.25
2018-09-19T19:00:24.252Z,19.26
2018-09-19T19:02:51.175Z,19.21
2018-09-19T19:05:18.124Z,19.02
2018-09-19T19:07:45.046Z,18.92
2018-09-19T19:10:11.957Z,18.83
2018-09-19T19:12:38.870Z,18.80
2018-09-19T19:15:05.848Z,18.74
2018-09-19T19:17:32.760Z,18.69
2018-09-19T19:19:59.693Z,18.61
2018-09-19T19:22:26.616Z,18.49
2018-09-19T19:24:53.519Z,18.43
2018-09-19T19:27:20.431Z,18.37
2018-09-19T19:29:47.365Z,18.32
2018-09-19T19:32:14.337Z,18.29
2018-09-19T19:34:41.259Z,18.28
2018-09-19T19:37:08.201Z,18.29
2018-09-19T19:39:35.144Z,18.27
2018-09-19T19:42:02.069Z,18.29
2018-09-19T19:44:28.988Z,18.33
2018-09-19T19:46:55.976Z,18.32
2018-09-19T19:49:22.912Z,18.31
2018-09-19T19:51:49.846Z,18.31
2018-09-19T19:54:16.785Z,18.24
2018-09-19T19:56:43.705Z,18.20
2018-09-19T19:59:10.647Z,18.21
2018-09-19T20:01:37.537Z,18.20
2018-09-19T20:04:04.445Z,18.19
2018-09-19T20:06:31.358Z,18.11
2018-09-19T20:08:58.347Z,18.12
2018-09-19T20:11:25.269Z,18.08
2018-09-19T20:13:52.203Z,18.04
2018-09-19T20:16:19.152Z,17.98
2018-09-19T20:18:46.070Z,17.93
2018-09-19T20:21:12.992Z,17.89
2018-09-19T20:23:39.937Z,17.90
2018-09-19T20:26:06.845Z,17.95
2018-09-19T20:28:33.798Z,17.98
2018-09-19T20:31:00.944Z,18.00
2018-09-19T20:33:27.848Z,18.03
2018-09-19T20:35:54.765Z,18.09
2018-09-19T20:38:23.440Z,18.13
2018-09-19T20:40:50.397Z,18.18
2018-09-19T20:43:17.292Z,18.23
2018-09-19T20:45:44.228Z,18.24
2018-09-19T20:48:11.154Z,18.27
2018-09-19T20:50:38.087Z,18.23
2018-09-19T20:53:05.011Z,18.22
2018-09-19T20:55:31.954Z,18.21
2018-09-19T20:57:58.877Z,18.29
2018-09-19T21:00:25.792Z,18.30
2018-09-19T21:02:52.725Z,18.40
2018-09-19T21:05:19.652Z,18.49
2018-09-19T21:07:46.573Z,18.53
2018-09-19T21:10:13.497Z,18.54
2018-09-19T21:12:40.436Z,18.62
2018-09-19T21:15:07.366Z,18.69
2018-09-19T21:17:35.020Z,18.80
2018-09-19T21:20:01.937Z,18.79
2018-09-19T21:22:29.067Z,18.76
2018-09-19T21:24:55.845Z,18.79
2018-09-19T21:27:22.773Z,18.79
2018-09-19T21:29:49.700Z,18.77
2018-09-19T21:32:16.681Z,18.80
2018-09-19T21:34:43.535Z,18.81
2018-09-19T21:37:10.464Z,18.81
2018-09-19T21:39:37.400Z,18.80
2018-09-19T21:42:04.349Z,18.89
2018-09-19T21:44:31.269Z,18.97
2018-09-19T21:46:58.208Z,19.01
2018-09-19T21:49:25.125Z,19.03
2018-09-19T21:51:52.039Z,19.08
2018-09-19T21:54:19.018Z,19.08
2018-09-19T21:56:45.944Z,19.12
2018-09-19T21:59:12.875Z,19.12
2018-09-19T22:01:39.820Z,19.19
2018-09-19T22:04:06.745Z,19.21
2018-09-19T22:06:33.650Z,19.16
2018-09-19T22:09:00.574Z,19.11
2018-09-19T22:11:27.505Z,19.09
2018-09-19T22:13:54.428Z,19.11
2018-09-19T22:16:21.376Z,19.12
2018-09-19T22:18:48.293Z,19.15
2018-09-19T22:21:15.213Z,19.16
2018-09-19T22:23:42.151Z,19.10
2018-09-19T22:26:09.137Z,19.05
2018-09-19T22:28:36.059Z,19.09
2018-09-19T22:31:03.003Z,19.10
2018-09-19T22:33:29.929Z,19.08
2018-09-19T22:35:56.860Z,19.11
2018-09-19T22:38:23.761Z,19.08
2018-09-19T22:40:50.681Z,19.10
2018-09-19T22:43:17.603Z,19.11
2018-09-19T22:45:44.541Z,19.09
2018-09-19T22:48:11.466Z,19.03
2018-09-19T22:50:38.410Z,18.99
2018-09-19T22:53:05.352Z,18.88
2018-09-19T22:55:32.632Z,18.88
2018-09-19T22:57:59.545Z,18.84
2018-09-19T23:00:26.478Z,18.82
2018-09-19T23:02:53.396Z,18.79
2018-09-19T23:05:20.319Z,18.76
2018-09-19T23:07:47.234Z,18.74
2018-09-19T23:10:14.181Z,18.72
2018-09-19T23:12:41.099Z,18.64
2018-09-19T23:15:08.064Z,18.59
2018-09-19T23:17:35.001Z,18.61
2018-09-19T23:20:01.956Z,18.55
2018-09-19T23:22:28.881Z,18.50
2018-09-19T23:24:55.780Z,18.51
2018-09-19T23:27:22.712Z,18.57
2018-09-19T23:29:49.652Z,18.57
2018-09-19T23:32:16.579Z,18.67
2018-09-19T23:34:43.499Z,18.69
2018-09-19T23:37:10.493Z,18.61
2018-09-19T23:39:37.424Z,18.57
2018-09-19T23:42:04.377Z,18.55
2018-09-19T23:44:31.361Z,18.55
2018-09-19T23:46:58.310Z,18.54
2018-09-19T23:49:25.260Z,18.52
2018-09-19T23:51:52.188Z,18.52
2018-09-19T23:54:19.101Z,18.48
2018-09-19T23:56:46.053Z,18.46
2018-09-19T23:59:12.993Z,18.37
